Time;durP1;ratioP1;P1;durP2;ratioP2;P2;SDS_P1;SDS_P2;PMS_P1;PMS_P2;Temp;Humidity;BMP_temperature;BMP_pressure;BME280_temperature;BME280_humidity;BME280_pressure;Samples;Min_cycle;Max_cycle;Signal;HPM_P1;HPM_P2
2022/11/05 00:09:28;;;;;;;4.88;1.63;;;;;;;6.42;100.00;100373.06;5089572;28;20040;-87
2022/11/05 00:17:29;;;;;;;4.10;1.58;;;;;;;5.90;100.00;100373.44;5077523;28;20106;-87
2022/11/05 00:19:56;;;;;;;6.50;1.85;;;;;;;5.93;100.00;100384.66;5089406;28;20117;-87
2022/11/05 00:25:17;;;;;;;3.20;1.40;;;;;;;5.87;100.00;100388.25;5091648;28;20154;-85
2022/11/05 00:27:46;;;;;;;4.32;1.40;;;;;;;5.69;100.00;100356.63;5087902;28;20044;-86
2022/11/05 00:30:17;;;;;;;3.08;1.40;;;;;;;5.76;100.00;100351.28;5087081;28;20047;-86
2022/11/05 00:32:45;;;;;;;4.30;1.40;;;;;;;5.95;100.00;100375.06;5090215;28;20071;-86
2022/11/05 00:35:12;;;;;;;3.35;1.23;;;;;;;6.00;100.00;100366.31;5082264;28;20105;-86
2022/11/05 00:37:40;;;;;;;6.22;1.92;;;;;;;5.88;100.00;100353.59;5081739;28;20056;-87
2022/11/05 00:40:14;;;;;;;3.38;1.23;;;;;;;5.88;100.00;100349.25;5079853;28;20044;-86
2022/11/05 00:45:29;;;;;;;3.28;1.23;;;;;;;5.99;100.00;100367.19;5089818;28;20482;-86
2022/11/05 00:50:41;;;;;;;3.05;1.30;;;;;;;6.04;100.00;100362.75;5089761;28;20048;-87
2022/11/05 00:53:08;;;;;;;3.35;1.10;;;;;;;6.04;100.00;100362.75;5090238;28;20070;-87
2022/11/05 00:55:38;;;;;;;3.13;1.20;;;;;;;5.94;100.00;100337.00;5094022;28;20063;-87
2022/11/05 00:58:10;;;;;;;4.45;1.60;;;;;;;5.89;100.00;100348.34;5093648;28;20052;-87
2022/11/05 01:00:40;;;;;;;2.70;1.10;;;;;;;5.72;100.00;100329.72;5090103;28;20056;-87
2022/11/05 01:03:09;;;;;;;2.80;1.15;;;;;;;5.57;100.00;100353.47;5094064;28;20280;-87
2022/11/05 01:05:41;;;;;;;7.63;1.98;;;;;;;5.10;100.00;100297.38;5084583;28;20056;-85
2022/11/05 01:08:09;;;;;;;3.08;1.17;;;;;;;5.32;100.00;100334.09;5093520;28;20566;-86
2022/11/05 01:10:44;;;;;;;3.35;1.52;;;;;;;5.65;100.00;100369.72;5094039;28;20090;-85
2022/11/05 01:13:11;;;;;;;2.47;1.20;;;;;;;5.72;100.00;100366.09;5092220;28;20052;-87
2022/11/05 01:15:40;;;;;;;4.88;1.42;;;;;;;5.76;100.00;100353.91;5091891;28;20094;-86
2022/11/05 01:18:07;;;;;;;4.45;1.50;;;;;;;5.64;100.00;100319.50;5085936;28;20051;-87
2022/11/05 01:20:34;;;;;;;3.17;1.30;;;;;;;5.90;100.00;100352.66;5093022;28;20048;-87
2022/11/05 01:23:01;;;;;;;4.50;1.27;;;;;;;5.77;100.00;100327.00;5093276;28;20048;-86
2022/11/05 01:25:27;;;;;;;5.82;1.70;;;;;;;5.78;100.00;100341.72;5093133;28;20040;-86
2022/11/05 01:27:54;;;;;;;2.75;1.10;;;;;;;5.58;100.00;100319.66;5093184;28;20126;-86
2022/11/05 01:30:21;;;;;;;2.03;1.17;;;;;;;5.78;100.00;100345.16;5089643;28;20431;-86
2022/11/05 01:32:49;;;;;;;3.72;1.20;;;;;;;5.58;100.00;100327.47;5091669;28;20056;-86
2022/11/05 01:35:16;;;;;;;2.85;1.20;;;;;;;5.79;100.00;100346.88;5093293;28;20410;-86
2022/11/05 01:37:44;;;;;;;3.10;1.20;;;;;;;5.76;100.00;100338.31;5093139;28;20067;-86
2022/11/05 01:40:17;;;;;;;2.95;1.13;;;;;;;5.81;100.00;100345.09;5093872;28;20469;-86
2022/11/05 01:42:44;;;;;;;;;;;;;;;5.84;100.00;100350.22;5091049;28;20474;-86
2022/11/05 01:45:25;;;;;;;1.75;1.02;;;;;;;5.70;100.00;100319.38;5083179;28;19924;-87
2022/11/05 01:47:52;;;;;;;3.42;1.10;;;;;;;5.70;100.00;100336.69;5082349;28;20059;-87
2022/11/05 01:50:41;;;;;;;2.97;1.25;;;;;;;5.73;100.00;100338.38;5091681;28;20056;-87
2022/11/05 01:53:30;;;;;;;7.00;1.63;;;;;;;5.57;100.00;100307.56;5093545;28;20452;-86
2022/11/05 01:56:00;;;;;;;3.13;1.20;;;;;;;5.75;100.00;100331.38;5091180;28;20116;-87
2022/11/05 01:58:32;;;;;;;1.65;1.05;;;;;;;5.53;100.00;100312.88;5092330;28;20052;-86
2022/11/05 02:01:00;;;;;;;3.20;1.30;;;;;;;5.62;100.00;100323.88;5089215;28;20085;-87
2022/11/05 02:03:28;;;;;;;4.90;1.75;;;;;;;5.59;100.00;100326.56;5080314;28;20053;-87
2022/11/05 02:05:59;;;;;;;3.20;1.27;;;;;;;5.54;100.00;100320.59;5086113;28;20052;-87
2022/11/05 02:08:51;;;;;;;3.38;1.30;;;;;;;5.76;100.00;100333.09;5084422;28;20168;-86
2022/11/05 02:11:19;;;;;;;3.70;1.30;;;;;;;5.93;100.00;100333.53;5091395;28;20105;-88
2022/11/05 02:13:47;;;;;;;6.22;1.38;;;;;;;5.83;100.00;100321.69;5092185;28;20511;-87
2022/11/05 02:16:17;;;;;;;3.63;1.25;;;;;;;5.86;100.00;100329.38;5092236;28;20044;-86
2022/11/05 02:19:18;;;;;;;2.10;1.00;;;;;;;5.74;100.00;100294.19;5093252;28;20051;-86
2022/11/05 02:21:55;;;;;;;3.30;1.20;;;;;;;5.93;100.00;100315.34;5093255;28;20052;-87
2022/11/05 02:24:49;;;;;;;2.13;1.15;;;;;;;5.92;100.00;100315.41;5089729;28;20139;-87
2022/11/05 02:27:38;;;;;;;6.75;1.50;;;;;;;5.90;100.00;100318.03;5079709;28;20060;-86
2022/11/05 02:30:20;;;;;;;3.25;1.10;;;;;;;5.95;100.00;100315.28;5082907;28;20053;-86
2022/11/05 02:33:02;;;;;;;3.60;1.30;;;;;;;5.86;100.00;100313.78;5074370;28;20102;-88
2022/11/05 02:35:55;;;;;;;2.45;1.00;;;;;;;5.80;100.00;100311.34;5092244;28;20176;-87
2022/11/05 02:38:53;;;;;;;5.13;1.40;;;;;;;5.58;100.00;100287.63;5088729;28;20043;-86
2022/11/05 02:41:29;;;;;;;1.42;1.00;;;;;;;5.59;100.00;100323.94;5077798;28;20054;-86
2022/11/05 02:44:02;;;;;;;2.58;1.20;;;;;;;5.48;100.00;100320.75;5079980;28;20043;-86
2022/11/05 02:46:29;;;;;;;2.22;1.13;;;;;;;5.42;100.00;100320.88;5092678;28;20394;-86
2022/11/05 02:49:16;;;;;;;3.38;1.10;;;;;;;5.31;100.00;100300.38;5080643;28;20063;-85
2022/11/05 02:51:50;;;;;;;1.98;1.08;;;;;;;5.37;100.00;100318.41;5092191;28;20055;-86
2022/11/05 02:54:25;;;;;;;1.95;1.10;;;;;;;5.36;100.00;100306.31;5079197;28;20068;-86
2022/11/05 02:56:55;;;;;;;2.25;1.10;;;;;;;5.31;100.00;100311.63;5088353;28;20090;-86
2022/11/05 02:59:22;;;;;;;2.40;1.10;;;;;;;5.39;100.00;100321.81;5083116;28;20518;-86
2022/11/05 03:01:50;;;;;;;2.40;1.10;;;;;;;5.10;100.00;100275.78;5077774;28;20456;-86
2022/11/05 03:04:21;;;;;;;2.25;1.00;;;;;;;5.29;100.00;100297.84;5093353;28;20055;-86
2022/11/05 03:07:23;;;;;;;2.72;1.10;;;;;;;5.31;100.00;100319.41;5074823;28;20051;-87
2022/11/05 03:10:20;;;;;;;3.08;1.17;;;;;;;5.30;100.00;100320.28;5029880;28;20057;-87
2022/11/05 03:13:03;;;;;;;3.65;1.38;;;;;;;5.24;100.00;100314.38;5083351;28;20056;-87
2022/11/05 03:15:51;;;;;;;5.97;1.43;;;;;;;5.22;100.00;100305.78;5092263;28;20040;-87
2022/11/05 03:18:50;;;;;;;2.17;1.20;;;;;;;5.30;100.00;100303.88;5091377;28;20326;-87
2022/11/05 03:21:25;;;;;;;3.35;1.33;;;;;;;5.13;100.00;100279.16;5087077;28;20478;-86
2022/11/05 03:24:01;;;;;;;5.40;1.40;;;;;;;5.07;100.00;100278.44;5074561;28;20101;-87
2022/11/05 03:26:39;;;;;;;3.47;1.65;;;;;;;5.04;100.00;100275.91;5091112;28;20055;-87
2022/11/05 03:29:13;;;;;;;3.80;1.20;;;;;;;4.93;100.00;100281.31;5089645;28;20048;-86
2022/11/05 03:31:42;;;;;;;3.38;1.40;;;;;;;4.61;100.00;100269.88;5091402;28;20143;-86
2022/11/05 03:34:13;;;;;;;4.30;1.30;;;;;;;4.56;100.00;100259.59;5088809;28;20348;-87
2022/11/05 03:36:45;;;;;;;4.70;1.30;;;;;;;4.40;100.00;100218.47;5083659;28;20048;-86
2022/11/05 03:39:19;;;;;;;3.72;1.42;;;;;;;4.46;100.00;100221.81;5075414;28;20044;-86
2022/11/05 03:41:50;;;;;;;4.35;1.40;;;;;;;4.30;100.00;100197.94;5091720;28;20097;-86
2022/11/05 03:44:23;;;;;;;2.65;1.20;;;;;;;4.70;100.00;100254.13;5091899;28;20040;-85
2022/11/05 03:46:54;;;;;;;5.57;1.40;;;;;;;4.37;100.00;100212.47;5082739;28;20074;-86
2022/11/05 03:49:25;;;;;;;2.90;1.33;;;;;;;4.39;100.00;100220.19;5089549;28;20121;-86
2022/11/05 03:51:52;;;;;;;2.90;1.30;;;;;;;4.46;100.00;100255.50;5092059;28;20101;-87
2022/11/05 03:54:19;;;;;;;3.63;1.42;;;;;;;3.91;100.00;100186.59;5091360;28;20054;-87
2022/11/05 03:56:58;;;;;;;3.42;1.30;;;;;;;4.25;100.00;100246.41;5091997;28;20048;-86
2022/11/05 03:59:26;;;;;;;3.90;1.30;;;;;;;3.85;100.00;100171.19;5081413;28;20047;-86
2022/11/05 04:01:53;;;;;;;2.85;1.30;;;;;;;3.94;100.00;100215.88;5090207;28;20101;-86
2022/11/05 04:04:20;;;;;;;4.63;1.33;;;;;;;4.15;100.00;100250.06;5089293;28;20063;-86
2022/11/05 04:15:03;;;;;;;2.35;1.05;;;;;;;3.83;100.00;100222.16;5091557;28;20052;-87
2022/11/05 04:17:30;;;;;;;3.25;1.20;;;;;;;3.93;100.00;100232.31;5091790;28;20060;-87
2022/11/05 04:25:27;;;;;;;2.53;1.15;;;;;;;3.82;100.00;100194.56;5091086;28;20048;-86
2022/11/05 04:27:59;;;;;;;4.03;1.50;;;;;;;3.86;100.00;100243.69;5081884;28;20055;-86
2022/11/05 04:30:26;;;;;;;5.07;1.50;;;;;;;3.36;100.00;100209.13;5082457;28;20048;-87
2022/11/05 04:33:25;;;;;;;3.70;1.23;;;;;;;3.74;100.00;100228.38;5080531;28;20339;-87
2022/11/05 04:35:52;;;;;;;3.35;1.40;;;;;;;3.63;100.00;100230.25;5049763;28;20463;-87
2022/11/05 04:38:19;;;;;;;2.50;1.05;;;;;;;3.60;100.00;100229.44;5080314;28;20052;-87
2022/11/05 04:40:47;;;;;;;8.82;1.55;;;;;;;3.56;100.00;100240.75;5081409;28;20048;-88
2022/11/05 04:43:16;;;;;;;4.55;1.30;;;;;;;3.47;100.00;100225.38;5079281;28;20055;-87
2022/11/05 04:45:44;;;;;;;4.57;1.50;;;;;;;3.64;100.00;100230.25;5083272;28;20052;-86
2022/11/05 04:48:11;;;;;;;3.03;1.25;;;;;;;3.52;100.00;100236.47;5076596;28;20049;-86
2022/11/05 04:50:38;;;;;;;3.42;1.20;;;;;;;3.56;100.00;100216.56;5080111;28;20060;-87
2022/11/05 04:53:05;;;;;;;2.95;1.20;;;;;;;3.29;100.00;100164.38;5089014;28;20102;-87
2022/11/05 04:55:31;;;;;;;3.70;1.40;;;;;;;3.33;100.00;100180.72;5078922;28;20082;-87
2022/11/05 04:57:58;;;;;;;4.57;1.55;;;;;;;3.13;100.00;100143.09;5086176;28;20440;-87
2022/11/05 05:00:25;;;;;;;2.67;1.25;;;;;;;3.31;100.00;100185.94;5078493;28;20482;-87
2022/11/05 05:02:52;;;;;;;4.65;2.08;;;;;;;3.44;100.00;100220.22;5080285;28;20044;-86
2022/11/05 05:05:20;;;;;;;3.50;1.30;;;;;;;3.35;100.00;100222.97;5078637;28;20498;-86
2022/11/05 05:07:46;;;;;;;5.20;1.20;;;;;;;3.36;100.00;100211.72;5085845;28;20106;-85
2022/11/05 05:10:13;;;;;;;1.58;1.10;;;;;;;3.45;100.00;100202.97;5081906;28;20048;-87
2022/11/05 05:12:40;;;;;;;4.10;1.20;;;;;;;3.26;100.00;100166.19;5088416;28;20048;-87
2022/11/05 05:15:08;;;;;;;3.17;1.33;;;;;;;3.15;100.00;100177.59;5080631;28;20040;-85
2022/11/05 05:17:35;;;;;;;2.40;1.25;;;;;;;3.40;100.00;100203.06;5081164;28;20051;-86
2022/11/05 05:22:51;;;;;;;3.95;1.33;;;;;;;3.39;100.00;100201.34;5083418;28;20478;-86
2022/11/05 05:25:18;;;;;;;3.25;1.38;;;;;;;3.37;100.00;100210.88;5077528;28;20394;-86
2022/11/05 05:27:45;;;;;;;3.53;1.38;;;;;;;3.14;100.00;100186.22;5082000;28;20052;-87
2022/11/05 05:30:12;;;;;;;3.70;1.25;;;;;;;3.32;100.00;100218.69;5078529;28;20052;-87
2022/11/05 05:32:39;;;;;;;3.45;1.48;;;;;;;3.36;100.00;100210.00;5080555;28;20060;-85
2022/11/05 05:35:06;;;;;;;2.55;1.20;;;;;;;3.29;100.00;100204.94;5086932;28;20052;-85
2022/11/05 05:37:33;;;;;;;4.20;1.38;;;;;;;3.29;100.00;100200.63;5081266;28;20049;-86
2022/11/05 05:39:59;;;;;;;5.57;1.40;;;;;;;2.73;100.00;100169.59;5089243;28;20455;-86
2022/11/05 05:42:26;;;;;;;3.50;1.40;;;;;;;2.55;100.00;100120.72;5090796;28;20041;-86
2022/11/05 05:44:53;;;;;;;3.72;1.42;;;;;;;2.75;100.00;100125.63;5080527;28;20417;-86
2022/11/05 05:47:20;;;;;;;3.25;1.50;;;;;;;2.77;100.00;100137.63;5092020;28;20052;-86
2022/11/05 05:49:46;;;;;;;3.30;1.30;;;;;;;2.94;100.00;100152.03;5084139;28;20492;-86
2022/11/05 05:52:16;;;;;;;4.90;1.40;;;;;;;2.93;100.00;100140.84;5083085;28;20048;-86
2022/11/05 05:54:43;;;;;;;3.03;1.30;;;;;;;3.01;100.00;100161.41;5085798;28;20097;-86
2022/11/05 05:57:10;;;;;;;2.95;1.23;;;;;;;2.76;100.00;100145.41;5083037;28;20474;-86
2022/11/05 05:59:37;;;;;;;2.22;1.27;;;;;;;2.74;100.00;100139.41;5083348;28;20105;-86
2022/11/05 06:02:03;;;;;;;5.40;1.55;;;;;;;2.43;100.00;100114.88;5083622;28;20048;-86
2022/11/05 06:04:30;;;;;;;3.53;1.30;;;;;;;2.50;100.00;100136.31;5080598;28;20048;-86
2022/11/05 06:06:57;;;;;;;4.03;1.35;;;;;;;2.76;100.00;100151.47;5082002;28;20076;-86
2022/11/05 06:09:24;;;;;;;3.88;1.38;;;;;;;2.60;100.00;100085.34;5087179;28;20059;-87
2022/11/05 06:11:50;;;;;;;2.67;1.10;;;;;;;2.68;100.00;100111.09;5083177;28;20391;-87
2022/11/05 06:14:17;;;;;;;5.50;2.10;;;;;;;2.52;100.00;100133.72;5089701;28;20463;-87
2022/11/05 06:16:44;;;;;;;3.10;1.38;;;;;;;2.53;100.00;100145.75;5081098;28;20048;-87
2022/11/05 06:19:10;;;;;;;3.17;1.15;;;;;;;2.68;100.00;100137.78;5084271;28;20530;-87
2022/11/05 06:21:37;;;;;;;3.58;1.40;;;;;;;2.73;100.00;100122.22;5085153;28;20052;-87
2022/11/05 06:24:04;;;;;;;4.32;1.40;;;;;;;2.94;100.00;100144.28;5078212;28;20044;-87
2022/11/05 06:26:31;;;;;;;3.83;1.30;;;;;;;2.92;100.00;100120.16;5078537;28;20052;-90
2022/11/05 06:28:58;;;;;;;3.83;1.58;;;;;;;2.49;100.00;100110.50;5087285;28;20052;-89
2022/11/05 06:31:24;;;;;;;2.60;1.30;;;;;;;2.41;100.00;100106.28;5079624;28;20097;-89
2022/11/05 06:33:51;;;;;;;5.53;1.50;;;;;;;2.30;100.00;100097.81;5087401;28;20049;-90
2022/11/05 06:36:19;;;;;;;3.95;1.42;;;;;;;2.66;100.00;100124.88;5077588;28;20041;-88
2022/11/05 06:38:46;;;;;;;4.53;1.33;;;;;;;2.82;100.00;100116.91;5078233;28;20048;-90
2022/11/05 06:41:13;;;;;;;5.22;1.42;;;;;;;2.92;100.00;100136.56;5089738;28;20109;-88
2022/11/05 06:43:40;;;;;;;3.50;1.50;;;;;;;2.51;100.00;100086.31;5082087;28;20472;-89
2022/11/05 06:46:08;;;;;;;4.10;1.25;;;;;;;2.69;100.00;100117.94;5092690;28;20047;-89
2022/11/05 06:48:35;;;;;;;3.83;1.33;;;;;;;2.63;100.00;100078.38;5092144;28;20060;-89
2022/11/05 06:51:02;;;;;;;3.33;1.65;;;;;;;2.69;100.00;100071.41;5089803;28;20075;-90
2022/11/05 06:53:30;;;;;;;4.85;1.50;;;;;;;2.94;100.00;100111.53;5081233;28;20053;-87
2022/11/05 06:56:00;;;;;;;4.25;1.42;;;;;;;2.80;100.00;100110.91;5090801;28;20051;-87
2022/11/05 06:58:28;;;;;;;4.25;1.60;;;;;;;2.54;100.00;100126.78;5092114;28;20055;-86
2022/11/05 07:00:59;;;;;;;3.28;1.30;;;;;;;2.52;100.00;100106.13;5090125;28;20052;-87
2022/11/05 07:03:25;;;;;;;2.05;1.20;;;;;;;2.49;100.00;100111.34;5074437;28;20054;-86
2022/11/05 07:05:53;;;;;;;3.08;1.38;;;;;;;2.60;100.00;100117.22;5082611;28;20056;-87
2022/11/05 07:08:19;;;;;;;3.50;1.30;;;;;;;2.73;100.00;100092.03;5091026;28;20044;-88
2022/11/05 07:10:47;;;;;;;2.67;1.25;;;;;;;2.98;100.00;100122.69;5090427;28;20105;-87
2022/11/05 07:13:14;;;;;;;3.35;1.27;;;;;;;3.06;100.00;100105.28;5079172;28;20056;-84
2022/11/05 07:15:41;;;;;;;3.90;1.30;;;;;;;3.23;100.00;100092.06;5091577;28;20123;-86
2022/11/05 07:18:08;;;;;;;2.08;1.00;;;;;;;3.31;100.00;100074.69;5090490;28;20098;-85
2022/11/05 07:20:35;;;;;;;2.22;1.10;;;;;;;3.51;100.00;100083.81;5089164;28;20486;-86
2022/11/05 07:23:07;;;;;;;2.33;1.15;;;;;;;3.53;100.00;100085.47;5091321;28;20482;-86
2022/11/05 07:25:34;;;;;;;2.83;1.40;;;;;;;3.34;100.00;100077.19;5087566;28;20072;-86
2022/11/05 07:28:02;;;;;;;3.55;1.40;;;;;;;3.25;100.00;100072.19;5091260;28;20048;-86
2022/11/05 07:30:30;;;;;;;2.42;1.20;;;;;;;3.01;100.00;100050.19;5088643;28;20055;-86
2022/11/05 07:32:57;;;;;;;4.82;1.50;;;;;;;2.99;100.00;100077.81;5090780;28;20101;-86
2022/11/05 07:35:24;;;;;;;3.75;1.40;;;;;;;2.56;100.00;100039.75;5090492;28;20055;-86
2022/11/05 07:37:53;;;;;;;4.05;1.65;;;;;;;2.49;100.00;100051.91;5081831;28;20052;-86
2022/11/05 07:40:22;;;;;;;5.72;1.60;;;;;;;2.27;100.00;100077.22;5099736;28;20459;-89
2022/11/05 07:42:57;;;;;;;3.85;1.45;;;;;;;2.46;100.00;100096.75;5090995;28;20052;-88
2022/11/05 07:45:25;;;;;;;3.22;1.33;;;;;;;2.66;100.00;100080.94;5090943;28;20796;-87
2022/11/05 07:47:58;;;;;;;3.35;1.30;;;;;;;2.81;100.00;100077.22;5086581;28;20055;-84
2022/11/05 07:50:28;;;;;;;2.42;1.38;;;;;;;2.99;100.00;100072.63;5081353;28;20056;-85
2022/11/05 07:53:10;;;;;;;4.68;1.60;;;;;;;2.91;100.00;100049.50;5091753;28;20043;-86
2022/11/05 07:55:40;;;;;;;2.67;1.40;;;;;;;2.74;100.00;100072.19;5078814;28;20471;-86
2022/11/05 07:58:07;;;;;;;5.50;1.65;;;;;;;2.27;100.00;100056.56;5089041;28;20116;-89
2022/11/05 08:00:34;;;;;;;4.47;1.65;;;;;;;2.23;100.00;100029.03;5089926;28;20051;-89
2022/11/05 08:03:12;;;;;;;3.47;1.45;;;;;;;2.70;100.00;100050.72;5092371;28;20084;-89
2022/11/05 08:05:43;;;;;;;4.70;1.30;;;;;;;2.73;100.00;100057.59;5085601;28;20044;-85
2022/11/05 08:08:12;;;;;;;3.13;1.40;;;;;;;2.94;100.00;100053.75;5085555;28;20101;-89
2022/11/05 08:10:40;;;;;;;4.35;1.50;;;;;;;2.94;100.00;100012.38;5091856;28;20479;-86
2022/11/05 08:13:07;;;;;;;2.85;1.13;;;;;;;3.22;100.00;100046.38;5090912;28;20097;-85
2022/11/05 08:15:35;;;;;;;4.32;1.65;;;;;;;3.80;100.00;100050.41;5091048;28;20440;-85
2022/11/05 08:18:09;;;;;;;3.33;1.30;;;;;;;4.61;100.00;100041.72;5089970;28;20055;-85
2022/11/05 08:20:38;;;;;;;4.47;1.63;;;;;;;5.03;100.00;100028.56;5088502;28;20056;-85
2022/11/05 08:23:05;;;;;;;4.22;1.60;;;;;;;5.19;100.00;100017.75;5090875;28;20082;-84
2022/11/05 08:25:32;;;;;;;5.07;1.50;;;;;;;5.09;100.00;100028.38;5086883;28;20048;-85
2022/11/05 08:28:02;;;;;;;4.78;2.55;;;;;;;4.37;100.00;100045.72;5090117;28;20068;-85
2022/11/05 08:30:31;;;;;;;3.08;1.30;;;;;;;4.11;100.00;100017.84;5088609;28;20055;-85
2022/11/05 08:33:03;;;;;;;2.75;1.35;;;;;;;5.03;100.00;100046.72;5094075;28;20048;-85
2022/11/05 08:35:30;;;;;;;2.47;1.40;;;;;;;5.61;100.00;100046.91;5092632;28;20067;-84
2022/11/05 08:37:59;;;;;;;4.40;1.30;;;;;;;5.38;100.00;100011.16;5092825;28;20457;-85
2022/11/05 08:40:26;;;;;;;3.53;1.45;;;;;;;5.29;100.00;100027.00;5091785;28;20150;-84
2022/11/05 08:42:56;;;;;;;2.28;1.20;;;;;;;5.03;100.00;100002.59;5092580;28;21127;-85
2022/11/05 08:45:24;;;;;;;3.88;1.30;;;;;;;4.95;100.00;99992.41;5092183;28;20101;-83
2022/11/05 08:48:01;;;;;;;2.20;1.00;;;;;;;4.87;100.00;99971.03;5092043;28;20048;-83
2022/11/05 08:50:28;;;;;;;3.78;1.30;;;;;;;4.79;100.00;99983.34;5091443;28;20420;-83
2022/11/05 08:52:56;;;;;;;3.33;1.27;;;;;;;4.99;100.00;100013.09;5095044;28;20044;-85
2022/11/05 08:55:23;;;;;;;3.40;1.40;;;;;;;4.71;100.00;99967.09;5097970;28;20044;-85
2022/11/05 08:57:58;;;;;;;2.38;1.17;;;;;;;4.71;100.00;99942.06;5101122;28;20431;-84
2022/11/05 09:00:25;;;;;;;3.75;1.55;;;;;;;4.95;100.00;99956.09;5102285;28;20052;-84
2022/11/05 09:02:53;;;;;;;2.35;1.20;;;;;;;5.26;100.00;99970.84;5100907;28;20048;-84
2022/11/05 09:05:20;;;;;;;3.15;1.40;;;;;;;5.35;100.00;99966.25;5094481;28;20061;-86
2022/11/05 09:07:47;;;;;;;1.50;1.00;;;;;;;5.30;100.00;99933.50;5091756;28;20045;-86
2022/11/05 09:10:14;;;;;;;3.13;1.33;;;;;;;5.58;100.00;99929.25;5092236;28;20163;-86
2022/11/05 09:12:42;;;;;;;2.67;1.13;;;;;;;5.78;100.00;99939.91;5106587;28;20068;-89
2022/11/05 09:15:23;;;;;;;3.67;1.38;;;;;;;6.05;100.00;99938.19;5091824;28;20040;-87
2022/11/05 09:18:04;;;;;;;2.15;1.20;;;;;;;6.26;100.00;99938.44;5092540;28;20032;-87
2022/11/05 09:20:41;;;;;;;2.90;1.20;;;;;;;6.40;100.00;99932.78;5108609;28;20561;-85
2022/11/05 09:23:13;;;;;;;3.50;1.35;;;;;;;6.49;100.00;99935.06;5098442;28;20045;-84
2022/11/05 09:25:42;;;;;;;2.83;1.42;;;;;;;6.78;100.00;99951.44;5102833;28;20068;-86
2022/11/05 09:28:22;;;;;;;2.70;1.35;;;;;;;6.66;100.00;99916.31;5106059;28;20066;-86
2022/11/05 09:31:08;;;;;;;5.60;1.40;;;;;;;6.84;100.00;99928.66;5107449;28;20052;-85
2022/11/05 09:33:48;;;;;;;2.58;1.10;;;;;;;6.69;100.00;99879.75;5095383;28;20098;-86
2022/11/05 09:36:18;;;;;;;3.80;1.38;;;;;;;7.06;100.00;99953.06;5105719;28;20051;-86
2022/11/05 09:38:59;;;;;;;3.92;1.58;;;;;;;7.17;100.00;99946.59;5103747;28;20115;-86
2022/11/05 09:41:36;;;;;;;2.03;1.10;;;;;;;7.06;100.00;99907.06;5093758;28;20052;-88
2022/11/05 09:44:41;;;;;;;2.78;1.10;;;;;;;7.25;100.00;99941.09;5103920;28;20040;-89
2022/11/05 09:47:47;;;;;;;3.10;1.35;;;;;;;7.25;100.00;99943.69;5107004;28;20044;-87
2022/11/05 09:50:48;;;;;;;2.85;1.27;;;;;;;7.42;100.00;99945.69;5093243;28;20066;-90
2022/11/05 09:53:30;;;;;;;3.33;1.30;;;;;;;7.27;100.00;99928.88;5104731;28;20071;-86
2022/11/05 09:56:23;;;;;;;1.85;1.20;;;;;;;7.34;100.00;99934.69;5108844;28;20048;-87
2022/11/05 09:59:17;;;;;;;3.75;1.40;;;;;;;7.53;100.00;99942.69;5108085;28;20102;-89
2022/11/05 10:02:11;;;;;;;2.92;1.10;;;;;;;7.52;100.00;99936.59;5102830;28;20048;-88
2022/11/05 10:04:59;;;;;;;2.28;1.02;;;;;;;7.34;100.00;99899.09;5103436;28;20043;-89
2022/11/05 10:07:44;;;;;;;2.97;1.00;;;;;;;7.48;100.00;99927.22;5107932;28;20028;-86
2022/11/05 10:10:42;;;;;;;3.90;1.17;;;;;;;7.47;100.00;99904.69;5109227;28;20077;-87
2022/11/05 10:13:25;;;;;;;2.70;1.10;;;;;;;7.74;100.00;99936.66;5122071;28;20131;-88
2022/11/05 10:16:12;;;;;;;3.22;1.30;;;;;;;7.84;100.00;99934.53;5103067;28;20463;-86
2022/11/05 10:19:06;;;;;;;2.20;1.10;;;;;;;7.65;100.00;99923.97;5108987;28;20040;-87
2022/11/05 10:21:46;;;;;;;;;;;;;;;7.89;100.00;99910.91;5111419;28;20044;-88
2022/11/05 10:24:27;;;;;;;2.38;1.00;;;;;;;7.88;100.00;99912.66;5104644;28;19924;-88
2022/11/05 10:27:36;;;;;;;2.58;1.20;;;;;;;7.95;100.00;99921.94;5104709;28;20048;-88
2022/11/05 10:30:17;;;;;;;4.45;1.73;;;;;;;7.84;100.00;99915.44;5106060;28;20068;-88
2022/11/05 10:33:02;;;;;;;3.67;1.40;;;;;;;7.80;100.00;99879.06;5108897;28;20050;-89
2022/11/05 10:35:54;;;;;;;6.95;1.77;;;;;;;7.63;100.00;99839.78;5090438;28;20024;-88
2022/11/05 10:38:35;;;;;;;5.45;1.70;;;;;;;7.76;100.00;99854.03;5098204;28;20040;-87
2022/11/05 10:41:38;;;;;;;4.80;1.80;;;;;;;7.98;100.00;99866.22;5094256;28;20044;-88
2022/11/05 10:44:42;;;;;;;4.57;1.90;;;;;;;8.07;100.00;99858.00;5110627;28;20596;-88
2022/11/05 10:48:00;;;;;;;4.85;1.85;;;;;;;8.12;100.00;99852.59;5100918;28;20040;-88
2022/11/05 10:50:43;;;;;;;5.18;1.80;;;;;;;8.20;100.00;99865.31;5099485;28;20079;-88
2022/11/05 10:53:34;;;;;;;7.28;2.45;;;;;;;8.23;100.00;99854.75;5092691;28;20056;-88
2022/11/05 10:56:38;;;;;;;4.90;1.90;;;;;;;8.25;100.00;99847.72;5110634;28;20040;-88
2022/11/05 10:59:29;;;;;;;7.78;3.35;;;;;;;8.03;100.00;99829.53;5091458;28;20036;-86
2022/11/05 11:02:24;;;;;;;6.88;2.65;;;;;;;8.09;100.00;99817.09;5095356;28;20040;-86
2022/11/05 11:05:05;;;;;;;9.02;2.83;;;;;;;8.23;100.00;99807.81;5103255;28;20179;-88
2022/11/05 11:08:01;;;;;;;7.07;2.78;;;;;;;8.43;100.00;99836.56;5094880;28;20075;-86
2022/11/05 11:10:52;;;;;;;8.57;2.80;;;;;;;8.45;100.00;99834.72;5107682;28;20394;-87
2022/11/05 11:13:56;;;;;;;5.97;2.22;;;;;;;8.24;100.00;99792.13;5107657;28;20047;-88
2022/11/05 11:16:42;;;;;;;6.63;2.35;;;;;;;8.52;100.00;99822.25;5107391;28;20051;-87
2022/11/05 11:19:25;;;;;;;11.45;2.88;;;;;;;8.56;100.00;99821.22;5104080;28;20054;-86
2022/11/05 11:22:05;;;;;;;5.30;2.15;;;;;;;8.64;100.00;99841.72;5106133;28;20052;-88
2022/11/05 11:24:52;;;;;;;8.32;2.85;;;;;;;8.32;100.00;99778.72;5101823;28;20048;-86
2022/11/05 11:27:33;;;;;;;6.85;2.50;;;;;;;8.66;100.00;99813.84;5102591;28;20028;-87
2022/11/05 11:30:19;;;;;;;7.32;2.75;;;;;;;8.84;100.00;99827.81;5104868;28;20024;-86
2022/11/05 11:33:07;;;;;;;5.57;2.22;;;;;;;8.77;100.00;99811.59;5088557;28;20042;-86
2022/11/05 11:35:47;;;;;;;6.13;2.22;;;;;;;8.78;100.00;99796.75;5106812;28;20071;-87
2022/11/05 11:38:30;;;;;;;6.55;2.22;;;;;;;8.93;100.00;99809.13;5111358;28;20095;-87
2022/11/05 11:41:17;;;;;;;;;;;;;;;8.97;100.00;99808.06;5108291;28;20036;-86
2022/11/05 11:44:11;;;;;;;6.35;2.58;;;;;;;8.89;100.00;99786.69;5108385;28;19927;-89
2022/11/05 11:46:53;;;;;;;;;;;;;;;9.12;100.00;99796.06;5104471;28;20074;-87
2022/11/05 11:49:49;;;;;;;5.40;2.00;;;;;;;9.05;100.00;99786.84;5103067;28;19924;-88
2022/11/05 11:52:30;;;;;;;7.93;2.63;;;;;;;9.18;100.00;99784.50;5099024;28;20048;-86
2022/11/05 11:55:11;;;;;;;7.43;2.60;;;;;;;9.27;100.00;99771.81;5101854;28;20051;-88
2022/11/05 11:58:05;;;;;;;5.72;2.17;;;;;;;9.15;100.00;99743.69;5105063;28;20109;-87
2022/11/05 12:00:48;;;;;;;;;;;;;;;9.34;100.00;99763.72;5091165;28;20058;-88
2022/11/05 12:03:39;;;;;;;7.85;2.20;;;;;;;8.96;100.00;99714.13;5108153;28;19915;-86
2022/11/05 12:06:28;;;;;;;6.55;2.33;;;;;;;9.25;100.00;99765.84;5108180;28;20648;-87
2022/11/05 12:09:31;;;;;;;5.88;2.10;;;;;;;9.32;100.00;99764.63;5107191;28;20036;-87
2022/11/05 12:12:14;;;;;;;5.90;1.67;;;;;;;9.23;100.00;99735.50;5104165;28;20040;-87
2022/11/05 12:15:14;;;;;;;4.65;1.73;;;;;;;9.30;100.00;99744.72;5108393;28;20046;-87
2022/11/05 12:18:02;;;;;;;6.43;2.10;;;;;;;9.25;100.00;99715.38;5109772;28;20044;-86
2022/11/05 12:20:54;;;;;;;6.22;1.90;;;;;;;9.43;100.00;99737.97;5107926;28;20044;-88
2022/11/05 12:23:53;;;;;;;4.38;1.73;;;;;;;9.45;100.00;99736.13;5110374;28;20040;-87
2022/11/05 12:26:50;;;;;;;8.95;2.42;;;;;;;9.38;100.00;99713.00;5096996;28;20048;-88
2022/11/05 12:29:48;;;;;;;7.13;1.98;;;;;;;9.41;100.00;99705.84;5098148;28;20032;-88
2022/11/05 12:32:39;;;;;;;6.55;2.00;;;;;;;9.40;100.00;99695.47;5105362;28;20059;-88
2022/11/05 12:35:25;;;;;;;6.57;2.40;;;;;;;9.39;100.00;99692.03;5104728;28;20046;-89
2022/11/05 12:38:24;;;;;;;6.93;2.20;;;;;;;9.37;100.00;99667.75;5109324;28;20048;-87
2022/11/05 12:41:45;;;;;;;7.32;2.28;;;;;;;9.71;100.00;99692.19;5097325;28;20076;-86
2022/11/05 12:44:50;;;;;;;8.27;2.53;;;;;;;9.78;100.00;99692.72;5082693;28;20597;-89
2022/11/05 12:48:01;;;;;;;8.43;2.28;;;;;;;9.74;100.00;99681.59;5109536;28;20044;-88